sensor_id;sensor_type;location;lat;lon;timestamp;P1;durP1;ratioP1;P2;durP2;ratioP2
68987;SDS011;56038;46.080;11.116;2024-03-08T00:03:57;3.65;;;3.15;;
68987;SDS011;56038;46.080;11.116;2024-03-08T00:09:01;4.45;;;3.47;;
68987;SDS011;56038;46.080;11.116;2024-03-08T00:14:03;5.40;;;3.45;;
68987;SDS011;56038;46.080;11.116;2024-03-08T00:19:06;4.38;;;3.45;;
68987;SDS011;56038;46.080;11.116;2024-03-08T00:24:11;5.70;;;3.47;;
68987;SDS011;56038;46.080;11.116;2024-03-08T00:29:12;4.00;;;3.00;;
68987;SDS011;56038;46.080;11.116;2024-03-08T00:34:14;3.97;;;3.08;;
68987;SDS011;56038;46.080;11.116;2024-03-08T00:39:17;4.10;;;3.10;;
68987;SDS011;56038;46.080;11.116;2024-03-08T00:44:21;3.07;;;2.77;;
68987;SDS011;56038;46.080;11.116;2024-03-08T00:49:22;5.15;;;3.47;;
68987;SDS011;56038;46.080;11.116;2024-03-08T00:54:25;5.03;;;3.58;;
68987;SDS011;56038;46.080;11.116;2024-03-08T00:59:27;4.57;;;3.63;;
68987;SDS011;56038;46.080;11.116;2024-03-08T01:04:29;5.70;;;4.03;;
68987;SDS011;56038;46.080;11.116;2024-03-08T01:09:32;4.20;;;3.25;;
68987;SDS011;56038;46.080;11.116;2024-03-08T01:14:34;4.88;;;4.28;;
68987;SDS011;56038;46.080;11.116;2024-03-08T01:19:36;4.28;;;3.60;;
68987;SDS011;56038;46.080;11.116;2024-03-08T01:24:40;5.40;;;3.80;;
68987;SDS011;56038;46.080;11.116;2024-03-08T01:29:41;7.05;;;4.28;;
68987;SDS011;56038;46.080;11.116;2024-03-08T01:34:43;4.75;;;3.78;;
68987;SDS011;56038;46.080;11.116;2024-03-08T01:39:47;5.53;;;4.53;;
68987;SDS011;56038;46.080;11.116;2024-03-08T01:44:48;5.00;;;3.88;;
68987;SDS011;56038;46.080;11.116;2024-03-08T01:49:51;6.45;;;4.43;;
68987;SDS011;56038;46.080;11.116;2024-03-08T01:54:55;5.22;;;3.83;;
68987;SDS011;56038;46.080;11.116;2024-03-08T01:59:57;5.53;;;4.03;;
68987;SDS011;56038;46.080;11.116;2024-03-08T02:05:00;3.90;;;3.50;;
68987;SDS011;56038;46.080;11.116;2024-03-08T02:10:06;5.18;;;3.97;;
68987;SDS011;56038;46.080;11.116;2024-03-08T02:20:10;5.97;;;4.38;;
68987;SDS011;56038;46.080;11.116;2024-03-08T02:25:14;6.47;;;4.20;;
68987;SDS011;56038;46.080;11.116;2024-03-08T02:30:16;6.53;;;4.32;;
68987;SDS011;56038;46.080;11.116;2024-03-08T02:35:18;4.97;;;4.00;;
68987;SDS011;56038;46.080;11.116;2024-03-08T02:40:21;6.80;;;4.53;;
68987;SDS011;56038;46.080;11.116;2024-03-08T02:45:23;8.45;;;5.40;;
68987;SDS011;56038;46.080;11.116;2024-03-08T02:50:25;6.38;;;4.57;;
68987;SDS011;56038;46.080;11.116;2024-03-08T02:55:28;7.38;;;3.88;;
68987;SDS011;56038;46.080;11.116;2024-03-08T03:00:30;7.38;;;4.78;;
68987;SDS011;56038;46.080;11.116;2024-03-08T03:05:32;7.20;;;5.28;;
68987;SDS011;56038;46.080;11.116;2024-03-08T03:10:36;5.85;;;4.85;;
68987;SDS011;56038;46.080;11.116;2024-03-08T03:15:38;5.45;;;4.32;;
68987;SDS011;56038;46.080;11.116;2024-03-08T03:20:41;7.93;;;5.40;;
68987;SDS011;56038;46.080;11.116;2024-03-08T03:25:45;7.45;;;5.30;;
68987;SDS011;56038;46.080;11.116;2024-03-08T03:30:47;5.32;;;4.40;;
68987;SDS011;56038;46.080;11.116;2024-03-08T03:35:49;5.55;;;4.63;;
68987;SDS011;56038;46.080;11.116;2024-03-08T03:40:53;5.75;;;4.22;;
68987;SDS011;56038;46.080;11.116;2024-03-08T03:45:57;6.97;;;4.43;;
68987;SDS011;56038;46.080;11.116;2024-03-08T03:50:59;5.72;;;4.40;;
68987;SDS011;56038;46.080;11.116;2024-03-08T03:56:02;6.85;;;4.80;;
68987;SDS011;56038;46.080;11.116;2024-03-08T04:01:07;4.80;;;3.92;;
68987;SDS011;56038;46.080;11.116;2024-03-08T04:06:09;7.93;;;4.75;;
68987;SDS011;56038;46.080;11.116;2024-03-08T04:11:12;4.80;;;4.00;;
68987;SDS011;56038;46.080;11.116;2024-03-08T04:16:16;6.83;;;5.63;;
68987;SDS011;56038;46.080;11.116;2024-03-08T04:21:19;5.07;;;3.75;;
68987;SDS011;56038;46.080;11.116;2024-03-08T04:26:22;7.15;;;4.40;;
68987;SDS011;56038;46.080;11.116;2024-03-08T04:31:24;7.32;;;4.05;;
68987;SDS011;56038;46.080;11.116;2024-03-08T04:36:26;6.25;;;3.58;;
68987;SDS011;56038;46.080;11.116;2024-03-08T04:41:30;5.72;;;4.45;;
68987;SDS011;56038;46.080;11.116;2024-03-08T04:46:34;5.35;;;3.90;;
68987;SDS011;56038;46.080;11.116;2024-03-08T04:51:36;5.97;;;3.83;;
68987;SDS011;56038;46.080;11.116;2024-03-08T04:56:39;6.93;;;5.15;;
68987;SDS011;56038;46.080;11.116;2024-03-08T05:01:41;8.10;;;5.07;;
68987;SDS011;56038;46.080;11.116;2024-03-08T05:06:43;6.70;;;4.90;;
68987;SDS011;56038;46.080;11.116;2024-03-08T05:11:46;5.97;;;4.10;;
68987;SDS011;56038;46.080;11.116;2024-03-08T05:16:48;6.50;;;4.13;;
68987;SDS011;56038;46.080;11.116;2024-03-08T05:21:50;4.97;;;4.07;;
68987;SDS011;56038;46.080;11.116;2024-03-08T05:26:53;5.28;;;3.78;;
68987;SDS011;56038;46.080;11.116;2024-03-08T05:31:55;4.75;;;3.78;;
68987;SDS011;56038;46.080;11.116;2024-03-08T05:36:58;8.23;;;4.25;;
68987;SDS011;56038;46.080;11.116;2024-03-08T05:42:01;6.22;;;4.43;;
68987;SDS011;56038;46.080;11.116;2024-03-08T05:47:03;4.72;;;3.95;;
68987;SDS011;56038;46.080;11.116;2024-03-08T05:52:07;4.55;;;3.55;;
68987;SDS011;56038;46.080;11.116;2024-03-08T05:57:11;3.53;;;3.13;;
68987;SDS011;56038;46.080;11.116;2024-03-08T06:02:14;5.13;;;4.13;;
68987;SDS011;56038;46.080;11.116;2024-03-08T06:07:19;5.63;;;3.30;;
68987;SDS011;56038;46.080;11.116;2024-03-08T06:12:22;4.38;;;3.42;;
68987;SDS011;56038;46.080;11.116;2024-03-08T06:17:28;5.25;;;4.03;;
68987;SDS011;56038;46.080;11.116;2024-03-08T06:22:30;4.75;;;3.88;;
68987;SDS011;56038;46.080;11.116;2024-03-08T06:27:34;5.80;;;4.40;;
68987;SDS011;56038;46.080;11.116;2024-03-08T06:32:36;5.60;;;4.05;;
68987;SDS011;56038;46.080;11.116;2024-03-08T06:37:38;5.25;;;4.00;;
68987;SDS011;56038;46.080;11.116;2024-03-08T06:42:41;7.95;;;4.70;;
68987;SDS011;56038;46.080;11.116;2024-03-08T06:47:43;9.18;;;5.93;;
68987;SDS011;56038;46.080;11.116;2024-03-08T06:52:45;6.60;;;4.55;;
68987;SDS011;56038;46.080;11.116;2024-03-08T06:57:52;6.67;;;4.23;;
68987;SDS011;56038;46.080;11.116;2024-03-08T07:02:54;4.80;;;4.13;;
68987;SDS011;56038;46.080;11.116;2024-03-08T07:07:55;5.00;;;4.30;;
68987;SDS011;56038;46.080;11.116;2024-03-08T07:12:58;4.82;;;3.70;;
68987;SDS011;56038;46.080;11.116;2024-03-08T07:18:02;5.97;;;4.60;;
68987;SDS011;56038;46.080;11.116;2024-03-08T07:23:04;5.15;;;3.58;;
68987;SDS011;56038;46.080;11.116;2024-03-08T07:28:07;5.65;;;4.20;;
68987;SDS011;56038;46.080;11.116;2024-03-08T07:33:09;4.22;;;3.40;;
68987;SDS011;56038;46.080;11.116;2024-03-08T07:38:11;3.78;;;3.20;;
68987;SDS011;56038;46.080;11.116;2024-03-08T07:43:15;4.97;;;3.28;;
68987;SDS011;56038;46.080;11.116;2024-03-08T07:48:16;6.25;;;4.22;;
68987;SDS011;56038;46.080;11.116;2024-03-08T07:53:18;6.60;;;5.00;;
68987;SDS011;56038;46.080;11.116;2024-03-08T07:58:21;7.13;;;4.88;;
68987;SDS011;56038;46.080;11.116;2024-03-08T08:03:23;5.68;;;4.35;;
68987;SDS011;56038;46.080;11.116;2024-03-08T08:08:25;7.00;;;5.78;;
68987;SDS011;56038;46.080;11.116;2024-03-08T08:13:28;3.53;;;3.22;;
68987;SDS011;56038;46.080;11.116;2024-03-08T08:18:33;6.70;;;3.53;;
68987;SDS011;56038;46.080;11.116;2024-03-08T08:23:36;2.92;;;2.53;;
68987;SDS011;56038;46.080;11.116;2024-03-08T08:28:39;2.67;;;2.45;;
68987;SDS011;56038;46.080;11.116;2024-03-08T08:33:43;2.00;;;1.80;;
68987;SDS011;56038;46.080;11.116;2024-03-08T08:38:45;1.85;;;1.75;;
68987;SDS011;56038;46.080;11.116;2024-03-08T08:43:48;2.53;;;2.05;;
68987;SDS011;56038;46.080;11.116;2024-03-08T08:48:49;2.15;;;1.70;;
68987;SDS011;56038;46.080;11.116;2024-03-08T08:53:52;1.77;;;1.52;;
68987;SDS011;56038;46.080;11.116;2024-03-08T08:58:56;3.78;;;2.60;;
68987;SDS011;56038;46.080;11.116;2024-03-08T09:03:58;4.55;;;2.95;;
68987;SDS011;56038;46.080;11.116;2024-03-08T09:08:59;2.55;;;1.55;;
68987;SDS011;56038;46.080;11.116;2024-03-08T09:14:02;1.83;;;1.45;;
68987;SDS011;56038;46.080;11.116;2024-03-08T09:19:05;3.80;;;2.53;;
68987;SDS011;56038;46.080;11.116;2024-03-08T09:24:07;5.30;;;4.38;;
68987;SDS011;56038;46.080;11.116;2024-03-08T09:29:10;7.53;;;4.72;;
68987;SDS011;56038;46.080;11.116;2024-03-08T09:34:12;5.13;;;4.10;;
68987;SDS011;56038;46.080;11.116;2024-03-08T09:39:13;2.55;;;2.13;;
68987;SDS011;56038;46.080;11.116;2024-03-08T09:44:18;2.72;;;2.10;;
68987;SDS011;56038;46.080;11.116;2024-03-08T09:49:20;6.70;;;2.47;;
68987;SDS011;56038;46.080;11.116;2024-03-08T09:54:22;4.28;;;3.83;;
68987;SDS011;56038;46.080;11.116;2024-03-08T09:59:26;4.60;;;4.15;;
68987;SDS011;56038;46.080;11.116;2024-03-08T10:04:47;7.18;;;4.97;;
68987;SDS011;56038;46.080;11.116;2024-03-08T10:09:51;6.45;;;3.88;;
68987;SDS011;56038;46.080;11.116;2024-03-08T10:14:56;4.27;;;3.37;;
68987;SDS011;56038;46.080;11.116;2024-03-08T10:19:59;4.93;;;3.45;;
68987;SDS011;56038;46.080;11.116;2024-03-08T10:25:01;3.75;;;3.35;;
68987;SDS011;56038;46.080;11.116;2024-03-08T10:30:06;4.60;;;3.90;;
68987;SDS011;56038;46.080;11.116;2024-03-08T10:35:12;6.05;;;4.10;;
68987;SDS011;56038;46.080;11.116;2024-03-08T10:40:15;4.35;;;3.95;;
68987;SDS011;56038;46.080;11.116;2024-03-08T10:45:31;6.10;;;3.83;;
68987;SDS011;56038;46.080;11.116;2024-03-08T10:50:35;4.18;;;3.10;;
68987;SDS011;56038;46.080;11.116;2024-03-08T10:55:39;6.13;;;3.20;;
68987;SDS011;56038;46.080;11.116;2024-03-08T11:00:43;4.07;;;3.22;;
68987;SDS011;56038;46.080;11.116;2024-03-08T11:05:45;3.45;;;3.15;;
68987;SDS011;56038;46.080;11.116;2024-03-08T11:10:49;5.50;;;4.13;;
68987;SDS011;56038;46.080;11.116;2024-03-08T11:15:55;3.28;;;2.97;;
68987;SDS011;56038;46.080;11.116;2024-03-08T11:20:57;3.58;;;2.95;;
68987;SDS011;56038;46.080;11.116;2024-03-08T11:25:59;2.92;;;2.60;;
68987;SDS011;56038;46.080;11.116;2024-03-08T11:36:26;2.88;;;2.63;;
68987;SDS011;56038;46.080;11.116;2024-03-08T11:41:30;3.80;;;2.70;;
68987;SDS011;56038;46.080;11.116;2024-03-08T11:46:33;2.85;;;2.20;;
68987;SDS011;56038;46.080;11.116;2024-03-08T11:51:35;2.35;;;1.92;;
68987;SDS011;56038;46.080;11.116;2024-03-08T11:56:37;2.38;;;2.15;;
68987;SDS011;56038;46.080;11.116;2024-03-08T12:01:41;2.22;;;2.03;;
68987;SDS011;56038;46.080;11.116;2024-03-08T12:06:44;3.70;;;2.85;;
68987;SDS011;56038;46.080;11.116;2024-03-08T12:11:47;3.53;;;3.22;;
68987;SDS011;56038;46.080;11.116;2024-03-08T12:16:52;3.83;;;2.47;;
68987;SDS011;56038;46.080;11.116;2024-03-08T12:21:53;4.35;;;2.88;;
68987;SDS011;56038;46.080;11.116;2024-03-08T12:26:56;3.30;;;3.00;;
68987;SDS011;56038;46.080;11.116;2024-03-08T12:31:59;2.50;;;2.30;;
68987;SDS011;56038;46.080;11.116;2024-03-08T12:37:02;3.38;;;2.40;;
68987;SDS011;56038;46.080;11.116;2024-03-08T12:42:07;3.95;;;2.78;;
68987;SDS011;56038;46.080;11.116;2024-03-08T12:47:10;3.65;;;3.28;;
68987;SDS011;56038;46.080;11.116;2024-03-08T12:52:12;4.18;;;3.08;;
68987;SDS011;56038;46.080;11.116;2024-03-08T12:57:13;3.28;;;2.88;;
68987;SDS011;56038;46.080;11.116;2024-03-08T13:02:16;3.25;;;2.53;;
68987;SDS011;56038;46.080;11.116;2024-03-08T13:07:18;4.15;;;3.17;;
68987;SDS011;56038;46.080;11.116;2024-03-08T13:12:20;3.42;;;2.80;;
68987;SDS011;56038;46.080;11.116;2024-03-08T13:17:23;5.22;;;4.72;;
68987;SDS011;56038;46.080;11.116;2024-03-08T13:22:25;7.55;;;4.97;;
68987;SDS011;56038;46.080;11.116;2024-03-08T13:27:28;5.43;;;4.90;;
68987;SDS011;56038;46.080;11.116;2024-03-08T13:32:31;6.30;;;5.45;;
68987;SDS011;56038;46.080;11.116;2024-03-08T13:37:33;4.55;;;4.15;;
68987;SDS011;56038;46.080;11.116;2024-03-08T13:42:35;5.00;;;4.50;;
68987;SDS011;56038;46.080;11.116;2024-03-08T13:47:39;10.32;;;5.35;;
68987;SDS011;56038;46.080;11.116;2024-03-08T13:52:41;5.95;;;5.32;;
68987;SDS011;56038;46.080;11.116;2024-03-08T13:57:44;7.55;;;5.30;;
68987;SDS011;56038;46.080;11.116;2024-03-08T14:02:47;5.25;;;4.63;;
68987;SDS011;56038;46.080;11.116;2024-03-08T14:07:49;5.97;;;4.65;;
68987;SDS011;56038;46.080;11.116;2024-03-08T14:12:50;7.03;;;5.57;;
68987;SDS011;56038;46.080;11.116;2024-03-08T14:17:54;5.32;;;4.40;;
68987;SDS011;56038;46.080;11.116;2024-03-08T14:22:57;8.07;;;5.67;;
68987;SDS011;56038;46.080;11.116;2024-03-08T14:27:59;4.03;;;3.65;;
68987;SDS011;56038;46.080;11.116;2024-03-08T14:33:05;3.50;;;3.20;;
68987;SDS011;56038;46.080;11.116;2024-03-08T14:38:09;3.27;;;2.97;;
68987;SDS011;56038;46.080;11.116;2024-03-08T14:43:11;4.30;;;3.25;;
68987;SDS011;56038;46.080;11.116;2024-03-08T14:48:14;3.17;;;2.60;;
68987;SDS011;56038;46.080;11.116;2024-03-08T14:53:16;4.15;;;2.80;;
68987;SDS011;56038;46.080;11.116;2024-03-08T14:58:18;3.90;;;3.08;;
68987;SDS011;56038;46.080;11.116;2024-03-08T15:03:22;3.50;;;3.15;;
68987;SDS011;56038;46.080;11.116;2024-03-08T15:08:26;2.63;;;2.00;;
68987;SDS011;56038;46.080;11.116;2024-03-08T15:13:28;2.28;;;2.08;;
68987;SDS011;56038;46.080;11.116;2024-03-08T15:18:40;2.47;;;2.28;;
68987;SDS011;56038;46.080;11.116;2024-03-08T15:23:41;3.45;;;2.22;;
68987;SDS011;56038;46.080;11.116;2024-03-08T15:28:47;3.10;;;2.53;;
68987;SDS011;56038;46.080;11.116;2024-03-08T15:33:53;2.65;;;2.42;;
68987;SDS011;56038;46.080;11.116;2024-03-08T15:39:00;3.65;;;2.60;;
68987;SDS011;56038;46.080;11.116;2024-03-08T15:44:03;4.82;;;2.83;;
68987;SDS011;56038;46.080;11.116;2024-03-08T15:49:06;2.60;;;2.13;;
68987;SDS011;56038;46.080;11.116;2024-03-08T15:54:08;3.97;;;2.65;;
68987;SDS011;56038;46.080;11.116;2024-03-08T15:59:10;3.05;;;2.60;;
68987;SDS011;56038;46.080;11.116;2024-03-08T16:04:13;4.25;;;2.67;;
68987;SDS011;56038;46.080;11.116;2024-03-08T16:09:15;2.90;;;2.60;;
68987;SDS011;56038;46.080;11.116;2024-03-08T16:14:17;2.55;;;2.35;;
68987;SDS011;56038;46.080;11.116;2024-03-08T16:19:21;3.00;;;2.40;;
68987;SDS011;56038;46.080;11.116;2024-03-08T16:24:23;2.80;;;2.33;;
68987;SDS011;56038;46.080;11.116;2024-03-08T16:29:25;2.97;;;2.67;;
68987;SDS011;56038;46.080;11.116;2024-03-08T16:34:28;5.18;;;3.67;;
68987;SDS011;56038;46.080;11.116;2024-03-08T16:39:31;2.75;;;2.22;;
68987;SDS011;56038;46.080;11.116;2024-03-08T16:44:33;2.67;;;2.30;;
68987;SDS011;56038;46.080;11.116;2024-03-08T16:49:36;2.75;;;2.50;;
68987;SDS011;56038;46.080;11.116;2024-03-08T16:54:37;4.45;;;3.53;;
68987;SDS011;56038;46.080;11.116;2024-03-08T16:59:39;3.05;;;2.75;;
68987;SDS011;56038;46.080;11.116;2024-03-08T17:04:42;2.85;;;2.08;;
68987;SDS011;56038;46.080;11.116;2024-03-08T17:09:44;2.75;;;2.05;;
68987;SDS011;56038;46.080;11.116;2024-03-08T17:14:46;2.20;;;2.00;;
68987;SDS011;56038;46.080;11.116;2024-03-08T17:19:49;3.20;;;2.40;;
68987;SDS011;56038;46.080;11.116;2024-03-08T17:24:51;2.67;;;2.22;;
68987;SDS011;56038;46.080;11.116;2024-03-08T17:29:55;2.13;;;1.95;;
68987;SDS011;56038;46.080;11.116;2024-03-08T17:34:58;2.58;;;2.38;;
68987;SDS011;56038;46.080;11.116;2024-03-08T17:40:00;3.50;;;2.20;;
68987;SDS011;56038;46.080;11.116;2024-03-08T17:45:05;3.20;;;2.35;;
68987;SDS011;56038;46.080;11.116;2024-03-08T17:50:14;2.20;;;2.03;;
68987;SDS011;56038;46.080;11.116;2024-03-08T17:55:18;2.65;;;1.90;;
68987;SDS011;56038;46.080;11.116;2024-03-08T18:00:20;3.42;;;2.70;;
68987;SDS011;56038;46.080;11.116;2024-03-08T18:10:30;3.75;;;3.35;;
68987;SDS011;56038;46.080;11.116;2024-03-08T18:15:33;3.95;;;2.92;;
68987;SDS011;56038;46.080;11.116;2024-03-08T18:20:37;3.30;;;2.72;;
68987;SDS011;56038;46.080;11.116;2024-03-08T18:25:44;3.15;;;2.67;;
68987;SDS011;56038;46.080;11.116;2024-03-08T18:30:45;3.85;;;2.88;;
68987;SDS011;56038;46.080;11.116;2024-03-08T18:35:50;2.65;;;2.40;;
68987;SDS011;56038;46.080;11.116;2024-03-08T18:40:54;3.40;;;2.73;;
68987;SDS011;56038;46.080;11.116;2024-03-08T18:45:57;2.67;;;2.45;;
68987;SDS011;56038;46.080;11.116;2024-03-08T18:51:00;4.50;;;3.53;;
68987;SDS011;56038;46.080;11.116;2024-03-08T18:56:02;3.70;;;3.13;;
68987;SDS011;56038;46.080;11.116;2024-03-08T19:01:04;4.43;;;3.22;;
68987;SDS011;56038;46.080;11.116;2024-03-08T19:06:08;4.75;;;3.55;;
68987;SDS011;56038;46.080;11.116;2024-03-08T19:11:10;4.32;;;3.40;;
68987;SDS011;56038;46.080;11.116;2024-03-08T19:16:13;5.65;;;3.30;;
68987;SDS011;56038;46.080;11.116;2024-03-08T19:21:18;6.00;;;3.22;;
68987;SDS011;56038;46.080;11.116;2024-03-08T19:26:21;5.85;;;3.90;;
68987;SDS011;56038;46.080;11.116;2024-03-08T19:31:23;4.25;;;3.80;;
68987;SDS011;56038;46.080;11.116;2024-03-08T19:36:26;4.38;;;3.58;;
68987;SDS011;56038;46.080;11.116;2024-03-08T19:41:27;4.10;;;3.53;;
68987;SDS011;56038;46.080;11.116;2024-03-08T19:46:31;5.88;;;3.40;;
68987;SDS011;56038;46.080;11.116;2024-03-08T19:51:42;6.07;;;3.47;;
68987;SDS011;56038;46.080;11.116;2024-03-08T19:56:46;5.43;;;4.00;;
68987;SDS011;56038;46.080;11.116;2024-03-08T20:01:48;4.90;;;3.05;;
68987;SDS011;56038;46.080;11.116;2024-03-08T20:06:52;3.97;;;3.58;;
68987;SDS011;56038;46.080;11.116;2024-03-08T20:11:54;5.72;;;4.03;;
68987;SDS011;56038;46.080;11.116;2024-03-08T20:16:56;5.03;;;3.70;;
68987;SDS011;56038;46.080;11.116;2024-03-08T20:21:59;3.50;;;2.92;;
68987;SDS011;56038;46.080;11.116;2024-03-08T20:27:01;4.57;;;3.92;;
68987;SDS011;56038;46.080;11.116;2024-03-08T20:32:03;4.10;;;3.40;;
68987;SDS011;56038;46.080;11.116;2024-03-08T20:37:06;4.28;;;3.25;;
68987;SDS011;56038;46.080;11.116;2024-03-08T20:42:09;4.80;;;3.80;;
68987;SDS011;56038;46.080;11.116;2024-03-08T20:47:11;6.75;;;5.25;;
68987;SDS011;56038;46.080;11.116;2024-03-08T20:52:14;4.22;;;3.67;;
68987;SDS011;56038;46.080;11.116;2024-03-08T20:57:16;3.42;;;3.13;;
68987;SDS011;56038;46.080;11.116;2024-03-08T21:02:17;4.60;;;3.65;;
68987;SDS011;56038;46.080;11.116;2024-03-08T21:07:20;4.72;;;4.00;;
68987;SDS011;56038;46.080;11.116;2024-03-08T21:12:22;4.30;;;3.72;;
68987;SDS011;56038;46.080;11.116;2024-03-08T21:17:24;6.18;;;5.00;;
68987;SDS011;56038;46.080;11.116;2024-03-08T21:22:28;5.15;;;4.63;;
68987;SDS011;56038;46.080;11.116;2024-03-08T21:27:30;4.82;;;4.13;;
68987;SDS011;56038;46.080;11.116;2024-03-08T21:32:31;5.20;;;4.20;;
68987;SDS011;56038;46.080;11.116;2024-03-08T21:37:34;4.43;;;3.60;;
68987;SDS011;56038;46.080;11.116;2024-03-08T21:42:36;4.82;;;4.05;;
68987;SDS011;56038;46.080;11.116;2024-03-08T21:47:38;4.20;;;3.50;;
68987;SDS011;56038;46.080;11.116;2024-03-08T21:52:42;4.07;;;3.65;;
68987;SDS011;56038;46.080;11.116;2024-03-08T21:57:44;3.90;;;3.50;;
68987;SDS011;56038;46.080;11.116;2024-03-08T22:02:46;3.65;;;3.25;;
68987;SDS011;56038;46.080;11.116;2024-03-08T22:07:50;4.20;;;3.38;;
68987;SDS011;56038;46.080;11.116;2024-03-08T22:12:52;4.68;;;4.18;;
68987;SDS011;56038;46.080;11.116;2024-03-08T22:17:54;5.30;;;4.68;;
68987;SDS011;56038;46.080;11.116;2024-03-08T22:22:58;7.78;;;4.68;;
68987;SDS011;56038;46.080;11.116;2024-03-08T22:28:01;4.57;;;4.05;;
68987;SDS011;56038;46.080;11.116;2024-03-08T22:33:04;5.25;;;3.83;;
68987;SDS011;56038;46.080;11.116;2024-03-08T22:38:10;4.40;;;3.78;;
68987;SDS011;56038;46.080;11.116;2024-03-08T22:43:11;6.47;;;4.13;;
68987;SDS011;56038;46.080;11.116;2024-03-08T22:48:13;4.25;;;3.58;;
68987;SDS011;56038;46.080;11.116;2024-03-08T22:53:16;4.10;;;3.70;;
68987;SDS011;56038;46.080;11.116;2024-03-08T22:58:18;5.10;;;3.30;;
68987;SDS011;56038;46.080;11.116;2024-03-08T23:03:20;3.83;;;3.40;;
68987;SDS011;56038;46.080;11.116;2024-03-08T23:08:24;4.15;;;3.50;;
68987;SDS011;56038;46.080;11.116;2024-03-08T23:13:29;5.75;;;3.78;;
68987;SDS011;56038;46.080;11.116;2024-03-08T23:18:34;5.18;;;4.18;;
68987;SDS011;56038;46.080;11.116;2024-03-08T23:23:37;4.03;;;3.58;;
68987;SDS011;56038;46.080;11.116;2024-03-08T23:28:39;4.90;;;3.70;;
68987;SDS011;56038;46.080;11.116;2024-03-08T23:33:41;4.20;;;3.70;;
68987;SDS011;56038;46.080;11.116;2024-03-08T23:38:47;5.27;;;3.30;;
68987;SDS011;56038;46.080;11.116;2024-03-08T23:43:50;4.47;;;3.72;;
68987;SDS011;56038;46.080;11.116;2024-03-08T23:48:53;6.60;;;4.45;;
68987;SDS011;56038;46.080;11.116;2024-03-08T23:53:56;5.88;;;4.20;;
68987;SDS011;56038;46.080;11.116;2024-03-08T23:58:58;5.30;;;3.92;;
